Time;durP1;ratioP1;P1;durP2;ratioP2;P2;SDS_P1;SDS_P2;PMS_P1;PMS_P2;Temp;Humidity;BMP_temperature;BMP_pressure;BME280_temperature;BME280_humidity;BME280_pressure;Samples;Min_cycle;Max_cycle;Signal;HPM_P1;HPM_P2
2022/04/21 00:00:11;;;;;;;3.45;2.05;;;;;;;13.44;45.55;100316.97;4938633;29;20061;-95
2022/04/21 00:02:37;;;;;;;7.53;2.88;;;;;;;13.36;45.91;100306.22;4938563;29;20028;-96
2022/04/21 00:05:03;;;;;;;4.65;1.90;;;;;;;13.56;45.36;100309.88;4937895;29;20027;-95
2022/04/21 00:07:29;;;;;;;6.35;2.50;;;;;;;13.36;45.96;100316.75;4938692;29;20131;-95
2022/04/21 00:09:54;;;;;;;4.90;2.55;;;;;;;12.96;46.93;100313.84;4938991;29;20087;-95
2022/04/21 00:12:20;;;;;;;7.03;2.58;;;;;;;13.09;46.45;100302.19;4939278;29;20058;-96
2022/04/21 00:14:45;;;;;;;6.22;2.95;;;;;;;13.04;46.68;100309.63;4947277;29;20012;-96
2022/04/21 00:17:10;;;;;;;8.13;3.08;;;;;;;13.29;46.53;100299.75;4954319;29;20031;-95
2022/04/21 00:19:37;;;;;;;4.95;2.60;;;;;;;13.53;45.88;100301.38;4951157;29;20035;-95
2022/04/21 00:24:50;;;;;;;6.68;2.88;;;;;;;13.84;45.16;100308.44;4952320;29;20039;-95
2022/04/21 00:27:17;;;;;;;7.07;2.92;;;;;;;13.06;46.74;100302.44;4954054;29;20028;-94
2022/04/21 00:29:46;;;;;;;8.63;3.05;;;;;;;13.29;46.20;100295.34;4951584;29;20027;-95
2022/04/21 00:32:12;;;;;;;7.30;3.13;;;;;;;12.99;47.63;100295.97;4952397;29;20028;-95
2022/04/21 00:34:37;;;;;;;13.68;2.97;;;;;;;13.09;47.29;100301.34;4952485;29;20035;-95
2022/04/21 00:37:03;;;;;;;5.80;3.05;;;;;;;12.86;47.45;100292.66;4958384;28;20032;-94
2022/04/21 00:39:31;;;;;;;7.82;3.55;;;;;;;13.04;46.97;100291.16;4961027;28;20023;-94
2022/04/21 00:41:58;;;;;;;6.05;3.80;;;;;;;13.23;46.60;100268.59;4960791;28;20024;-94
2022/04/21 00:44:24;;;;;;;6.10;3.67;;;;;;;13.02;46.98;100265.91;4960940;28;20027;-96
2022/04/21 00:46:51;;;;;;;5.10;3.08;;;;;;;13.48;46.87;100288.56;4961008;28;20015;-96
2022/04/21 00:49:18;;;;;;;4.63;2.80;;;;;;;13.62;46.40;100290.06;4960927;28;20018;-94
2022/04/21 00:51:44;;;;;;;4.47;3.10;;;;;;;13.53;46.61;100267.94;4960608;28;20011;-93
2022/04/21 00:54:10;;;;;;;4.32;3.25;;;;;;;13.56;46.36;100274.75;4960658;28;20071;-96
2022/04/21 00:56:35;;;;;;;9.95;3.38;;;;;;;13.55;46.38;100288.91;4960727;28;20016;-95
2022/04/21 00:59:03;;;;;;;5.35;3.08;;;;;;;13.54;46.13;100266.94;4953573;28;264734;-95
2022/04/21 01:04:13;;;;;;;6.65;4.05;;;;;;;13.22;46.84;100253.75;4961983;28;20022;-94
2022/04/21 01:06:38;;;;;;;6.65;4.18;;;;;;;13.29;46.28;100260.19;4961266;28;20012;-95
2022/04/21 01:09:04;;;;;;;6.70;3.95;;;;;;;13.27;46.48;100251.59;4961615;28;20030;-95
2022/04/21 01:11:30;;;;;;;9.65;4.78;;;;;;;13.45;45.85;100265.91;4961381;28;20012;-95
2022/04/21 01:13:56;;;;;;;7.95;4.53;;;;;;;13.32;46.51;100274.97;4961419;28;20028;-96
2022/04/21 01:16:21;;;;;;;7.40;4.40;;;;;;;13.32;45.85;100262.59;4961093;28;20023;-94
2022/04/21 01:18:46;;;;;;;5.85;4.15;;;;;;;13.32;45.79;100256.50;4961096;28;20016;-93
2022/04/21 01:21:12;;;;;;;9.18;5.22;;;;;;;13.22;45.99;100246.66;4961167;28;20046;-95
2022/04/21 01:23:37;;;;;;;10.88;5.90;;;;;;;13.21;45.71;100259.97;4958330;28;20023;-94
2022/04/21 01:26:03;;;;;;;7.32;5.15;;;;;;;13.20;46.00;100237.22;4957941;29;20028;-95
2022/04/21 01:28:30;;;;;;;8.95;5.40;;;;;;;13.21;45.78;100252.91;4956000;29;20059;-94
2022/04/21 01:30:56;;;;;;;8.80;4.80;;;;;;;13.19;45.67;100246.06;4957904;28;20011;-95
2022/04/21 01:33:22;;;;;;;7.72;4.75;;;;;;;13.07;45.73;100245.25;4957281;29;20064;-94
2022/04/21 01:35:47;;;;;;;8.10;4.80;;;;;;;13.19;45.54;100240.81;4960328;28;20020;-94
2022/04/21 01:41:09;;;;;;;8.90;4.40;;;;;;;12.69;46.49;100231.56;4958071;29;20043;-94
2022/04/21 01:43:35;;;;;;;9.38;5.07;;;;;;;12.77;46.41;100240.69;4939932;29;20114;-94
2022/04/21 01:46:01;;;;;;;6.97;4.32;;;;;;;12.58;46.88;100225.47;4939149;29;20122;-95
2022/04/21 01:48:26;;;;;;;9.13;4.78;;;;;;;12.26;46.83;100228.84;4939350;29;20431;-95
2022/04/21 01:50:51;;;;;;;5.57;4.22;;;;;;;12.70;46.62;100243.81;4939430;29;20031;-95
2022/04/21 01:53:17;;;;;;;6.82;4.35;;;;;;;12.43;46.72;100224.91;4939756;29;20054;-96
2022/04/21 01:55:42;;;;;;;7.07;4.63;;;;;;;12.16;47.84;100228.72;4939352;29;20030;-95
2022/04/21 01:58:08;;;;;;;7.03;4.07;;;;;;;12.52;47.00;100226.84;4939796;29;20035;-96
2022/04/21 02:00:34;;;;;;;7.50;4.30;;;;;;;12.59;46.96;100222.72;4938513;29;20039;-96
2022/04/21 02:02:59;;;;;;;6.18;4.13;;;;;;;12.57;46.91;100218.56;4938957;29;20027;-96
2022/04/21 02:05:25;;;;;;;8.73;4.00;;;;;;;12.58;47.18;100215.81;4938661;29;20027;-95
2022/04/21 02:07:50;;;;;;;9.18;3.70;;;;;;;12.41;47.23;100211.88;4939024;29;20484;-95
2022/04/21 02:10:18;;;;;;;8.88;3.83;;;;;;;12.64;47.49;100220.59;4938893;29;20036;-95
2022/04/21 02:12:44;;;;;;;6.85;3.97;;;;;;;12.80;47.17;100214.94;4939038;29;20125;-96
2022/04/21 02:15:09;;;;;;;8.13;4.07;;;;;;;12.53;47.49;100217.97;4938730;29;20032;-95
2022/04/21 02:17:36;;;;;;;3.70;3.00;;;;;;;12.61;47.77;100212.91;4938824;29;20027;-96
2022/04/21 02:20:07;;;;;;;9.75;3.83;;;;;;;12.73;47.89;100228.72;4938256;29;20035;-96
2022/04/21 02:22:34;;;;;;;6.93;3.88;;;;;;;12.40;47.81;100211.97;4938502;29;20027;-95
2022/04/21 02:25:01;;;;;;;6.75;3.08;;;;;;;12.32;48.29;100215.22;4938241;29;20031;-96
2022/04/21 02:27:26;;;;;;;5.82;3.92;;;;;;;12.30;48.44;100231.16;4938307;29;20038;-94
2022/04/21 02:29:52;;;;;;;7.60;3.63;;;;;;;12.29;49.00;100220.72;4938668;29;20032;-96
2022/04/21 02:32:18;;;;;;;5.25;3.40;;;;;;;12.28;49.43;100209.38;4938560;29;20052;-95
2022/04/21 02:34:43;;;;;;;5.95;3.42;;;;;;;12.32;48.94;100217.84;4939071;29;20118;-95
2022/04/21 02:37:09;;;;;;;5.38;3.33;;;;;;;12.26;49.41;100210.44;4938277;29;20023;-96
2022/04/21 02:39:35;;;;;;;4.47;3.33;;;;;;;11.87;49.93;100192.31;4938404;29;20028;-96
2022/04/21 02:42:01;;;;;;;4.72;3.28;;;;;;;11.90;50.40;100205.25;4938653;29;20030;-96
2022/04/21 02:44:26;;;;;;;6.32;2.95;;;;;;;11.97;50.13;100200.38;4938206;29;20050;-96
2022/04/21 02:46:52;;;;;;;4.43;3.30;;;;;;;12.11;50.56;100212.47;4938362;29;20475;-95
2022/04/21 02:49:19;;;;;;;5.55;3.30;;;;;;;11.80;50.96;100213.94;4938164;29;20047;-96
2022/04/21 02:51:44;;;;;;;6.28;3.45;;;;;;;11.52;51.37;100193.19;4937736;29;20037;-96
2022/04/21 02:57:20;;;;;;;8.27;3.50;;;;;;;11.75;51.63;100211.69;4956128;29;20062;-96
2022/04/21 02:59:53;;;;;;;6.47;3.33;;;;;;;11.54;51.70;100179.94;4939455;29;20061;-95
2022/04/21 03:02:20;;;;;;;5.90;3.30;;;;;;;11.63;51.11;100202.06;4937714;29;20031;-95
2022/04/21 03:04:45;;;;;;;4.18;3.10;;;;;;;11.64;51.26;100187.97;4939149;29;20034;-95
2022/04/21 03:07:12;;;;;;;5.55;3.00;;;;;;;11.65;51.71;100177.34;4937741;29;20024;-95
2022/04/21 03:09:39;;;;;;;4.68;3.05;;;;;;;11.59;51.23;100169.06;4937354;29;20024;-95
2022/04/21 03:12:05;;;;;;;5.47;3.30;;;;;;;11.73;50.71;100191.69;4937645;29;20035;-95
2022/04/21 03:14:31;;;;;;;3.88;2.70;;;;;;;11.69;51.39;100175.34;4937447;29;20019;-94
2022/04/21 03:16:57;;;;;;;5.45;3.50;;;;;;;11.58;51.48;100191.06;4936074;29;20030;-95
2022/04/21 03:19:23;;;;;;;4.82;3.20;;;;;;;11.82;51.11;100189.19;4936706;29;20028;-96
2022/04/21 03:24:33;;;;;;;8.32;3.75;;;;;;;11.49;51.54;100167.16;4937917;29;20030;-95
2022/04/21 03:26:59;;;;;;;9.63;3.63;;;;;;;11.64;51.71;100193.25;4936936;29;20402;-95
2022/04/21 03:29:24;;;;;;;6.68;3.83;;;;;;;11.31;52.54;100177.28;4937477;29;20474;-96
2022/04/21 03:31:50;;;;;;;4.30;3.40;;;;;;;11.46;51.95;100171.81;4936987;29;20024;-96
2022/04/21 03:34:18;;;;;;;4.18;3.40;;;;;;;11.49;52.24;100184.69;4936429;29;20027;-96
2022/04/21 03:36:50;;;;;;;5.10;3.67;;;;;;;11.54;52.08;100189.63;4936844;29;20023;-95
2022/04/21 03:39:18;;;;;;;10.40;3.72;;;;;;;11.24;52.64;100183.09;4936761;29;20031;-96
2022/04/21 03:41:43;;;;;;;5.75;3.55;;;;;;;11.20;52.99;100158.81;4937007;29;20119;-95
2022/04/21 03:44:12;;;;;;;4.20;3.65;;;;;;;11.07;53.12;100193.03;4937211;29;20051;-95
2022/04/21 03:46:38;;;;;;;4.40;3.65;;;;;;;11.16;53.39;100185.44;4937447;29;20398;-96
2022/04/21 03:49:04;;;;;;;4.55;3.35;;;;;;;10.92;52.87;100167.91;4937105;29;20023;-96
2022/04/21 03:51:31;;;;;;;5.78;3.60;;;;;;;11.09;53.47;100192.94;4937206;29;20401;-95
2022/04/21 03:53:59;;;;;;;5.95;4.43;;;;;;;10.82;53.32;100172.13;4937325;29;20118;-96
2022/04/21 03:56:26;;;;;;;4.75;3.83;;;;;;;10.86;53.45;100190.22;4936452;29;20043;-95
2022/04/21 03:58:52;;;;;;;6.15;4.20;;;;;;;10.60;53.93;100175.47;4936449;29;20071;-96
2022/04/21 04:01:18;;;;;;;5.80;4.90;;;;;;;10.63;53.74;100165.59;4936176;29;20058;-95
2022/04/21 04:03:44;;;;;;;6.22;4.28;;;;;;;10.64;54.18;100164.66;4936333;29;20059;-95
2022/04/21 04:11:38;;;;;;;5.22;4.05;;;;;;;10.26;55.74;100160.31;4937323;29;20035;-95
2022/04/21 04:14:05;;;;;;;13.23;5.05;;;;;;;10.13;55.42;100156.91;4936348;29;20032;-95
2022/04/21 04:16:34;;;;;;;8.55;4.82;;;;;;;10.27;55.62;100172.50;4936160;29;20020;-95
2022/04/21 04:19:00;;;;;;;9.57;4.70;;;;;;;10.18;56.00;100157.38;4936161;29;20020;-95
2022/04/21 04:21:26;;;;;;;14.27;5.43;;;;;;;10.00;56.78;100171.81;4935773;29;20023;-95
2022/04/21 04:23:52;;;;;;;7.88;5.13;;;;;;;9.93;56.82;100153.00;4936126;29;20031;-95
2022/04/21 04:26:20;;;;;;;6.47;4.57;;;;;;;10.02;56.55;100162.03;4936009;29;20458;-96
2022/04/21 04:28:45;;;;;;;9.18;4.65;;;;;;;10.37;55.47;100182.34;4939639;29;20447;-96
2022/04/21 04:31:11;;;;;;;7.20;4.60;;;;;;;10.37;56.00;100177.09;4939517;29;20027;-95
2022/04/21 04:33:36;;;;;;;8.48;5.05;;;;;;;10.39;55.84;100183.13;4939234;29;20031;-96
2022/04/21 04:36:03;;;;;;;8.13;5.03;;;;;;;10.10;56.83;100178.09;4939514;29;20023;-93
2022/04/21 04:38:28;;;;;;;10.77;4.30;;;;;;;10.25;55.79;100156.03;4940702;29;20467;-96
2022/04/21 04:40:54;;;;;;;7.90;4.78;;;;;;;10.21;56.33;100172.06;4939503;29;20038;-96
2022/04/21 04:43:19;;;;;;;7.38;5.82;;;;;;;10.45;55.79;100170.38;4943602;29;20051;-95
2022/04/21 04:48:28;;;;;;;9.23;4.97;;;;;;;10.38;56.96;100168.31;4953042;29;20042;-95
2022/04/21 04:50:54;;;;;;;7.65;4.70;;;;;;;10.45;56.82;100172.19;4938394;29;20110;-96
2022/04/21 04:53:19;;;;;;;11.88;5.82;;;;;;;10.26;56.67;100152.44;4941567;29;20032;-96
2022/04/21 04:55:46;;;;;;;7.35;5.50;;;;;;;10.28;56.61;100152.34;4939923;29;20072;-95
2022/04/21 04:58:11;;;;;;;9.93;5.50;;;;;;;10.22;56.73;100161.47;4940049;29;20075;-95
2022/04/21 05:00:37;;;;;;;9.48;5.88;;;;;;;9.61;58.70;100144.75;4939118;29;20123;-95
2022/04/21 05:03:02;;;;;;;8.82;5.82;;;;;;;9.75;58.73;100143.81;4938143;29;20027;-96
2022/04/21 05:05:28;;;;;;;9.20;6.00;;;;;;;9.50;59.28;100129.75;4938143;29;20030;-96
2022/04/21 05:07:53;;;;;;;11.52;5.82;;;;;;;9.59;58.77;100144.84;4938471;29;20087;-94
2022/04/21 05:10:19;;;;;;;10.93;5.35;;;;;;;9.72;59.52;100158.78;4938927;29;20030;-94
2022/04/21 05:12:45;;;;;;;11.25;6.57;;;;;;;9.47;59.98;100143.06;4938231;29;20031;-94
2022/04/21 05:15:10;;;;;;;9.82;6.38;;;;;;;9.86;58.73;100144.75;4938511;29;20039;-95
2022/04/21 05:17:36;;;;;;;8.93;6.13;;;;;;;9.87;58.61;100135.94;4938395;29;20030;-95
2022/04/21 05:20:02;;;;;;;9.63;6.28;;;;;;;10.14;58.55;100150.69;4938097;28;20482;-95
2022/04/21 05:22:37;;;;;;;12.13;6.28;;;;;;;10.19;58.63;100148.59;4938549;28;20032;-95
2022/04/21 05:25:07;;;;;;;20.13;7.00;;;;;;;9.93;59.07;100146.00;4939186;29;20122;-96
2022/04/21 05:27:33;;;;;;;12.13;6.35;;;;;;;10.02;59.04;100139.25;4938767;29;20038;-95
2022/04/21 05:32:45;;;;;;;16.77;6.93;;;;;;;9.87;60.35;100167.41;4939560;29;20045;-94
2022/04/21 05:35:11;;;;;;;9.38;6.88;;;;;;;10.08;59.62;100156.38;4938513;29;20122;-95
2022/04/21 05:37:37;;;;;;;9.00;6.72;;;;;;;10.44;58.29;100155.56;4938419;29;20488;-94
2022/04/21 05:40:04;;;;;;;14.18;8.52;;;;;;;10.21;59.01;100144.06;4937210;29;20031;-95
2022/04/21 05:42:35;;;;;;;11.93;6.70;;;;;;;10.35;58.17;100156.25;4938241;29;20510;-95
2022/04/21 05:45:00;;;;;;;14.70;6.47;;;;;;;9.86;60.38;100157.84;4937714;29;20111;-95
2022/04/21 05:47:26;;;;;;;14.88;6.80;;;;;;;10.38;58.94;100152.56;4937891;29;20026;-95
2022/04/21 05:49:52;;;;;;;12.85;7.10;;;;;;;10.77;58.15;100163.78;4938168;29;20086;-95
2022/04/21 05:52:22;;;;;;;13.40;6.80;;;;;;;10.79;58.15;100159.25;4937501;29;20020;-95
2022/04/21 05:54:48;;;;;;;13.25;6.80;;;;;;;10.93;57.38;100151.19;4937402;29;20074;-96
2022/04/21 05:57:13;;;;;;;12.25;7.13;;;;;;;11.07;57.15;100158.88;4937405;29;20478;-96
2022/04/21 05:59:38;;;;;;;14.48;6.80;;;;;;;11.08;57.25;100160.56;4937129;29;20031;-94
2022/04/21 06:02:05;;;;;;;15.93;6.93;;;;;;;11.26;57.19;100160.16;4937569;29;20489;-95
2022/04/21 06:04:31;;;;;;;12.20;7.30;;;;;;;11.63;56.15;100171.38;4937708;29;20023;-95
2022/04/21 06:06:56;;;;;;;11.07;7.80;;;;;;;11.21;57.33;100152.59;4937595;29;20032;-95
2022/04/21 06:09:21;;;;;;;17.10;8.18;;;;;;;11.18;57.51;100168.63;4937392;29;20199;-94
2022/04/21 06:11:49;;;;;;;13.30;6.72;;;;;;;11.72;56.36;100156.66;4936770;29;20403;-94
2022/04/21 06:14:15;;;;;;;12.90;6.93;;;;;;;12.01;54.69;100148.34;4937110;29;20035;-94
2022/04/21 06:16:40;;;;;;;14.85;7.03;;;;;;;12.03;54.95;100146.44;4936600;29;20024;-95
2022/04/21 06:19:06;;;;;;;14.52;7.40;;;;;;;11.66;55.89;100175.56;4936781;29;20036;-95
2022/04/21 06:21:31;;;;;;;15.35;7.05;;;;;;;11.63;56.39;100154.72;4936985;29;20499;-94
2022/04/21 06:23:56;;;;;;;14.23;6.53;;;;;;;11.82;55.60;100176.03;4937185;29;20471;-96
2022/04/21 06:26:25;;;;;;;11.27;6.80;;;;;;;12.39;54.43;100169.03;4937348;29;20031;-94
2022/04/21 06:28:51;;;;;;;16.27;7.88;;;;;;;12.48;54.67;100164.84;4937141;29;20066;-95
2022/04/21 06:31:16;;;;;;;12.00;6.97;;;;;;;12.73;53.93;100141.78;4937231;29;20023;-94
2022/04/21 06:33:42;;;;;;;13.65;6.85;;;;;;;12.98;53.49;100153.78;4937125;29;20027;-95
2022/04/21 06:36:07;;;;;;;12.15;7.13;;;;;;;13.63;51.91;100134.28;4936888;29;20611;-94
2022/04/21 06:38:33;;;;;;;9.73;6.35;;;;;;;13.33;52.64;100158.81;4937056;29;20063;-94
2022/04/21 06:40:59;;;;;;;22.40;7.57;;;;;;;13.29;52.76;100144.19;4936532;29;20028;-95
2022/04/21 06:49:09;;;;;;;12.15;7.50;;;;;;;16.50;46.46;100166.59;4940968;29;20123;-95
2022/04/21 06:51:34;;;;;;;15.88;7.20;;;;;;;18.64;42.04;100151.16;4936056;29;20055;-96
2022/04/21 06:53:59;;;;;;;10.02;6.13;;;;;;;17.37;43.75;100162.47;4937633;29;20024;-95
2022/04/21 06:56:25;;;;;;;11.60;6.57;;;;;;;17.26;44.27;100134.38;4936827;29;20039;-94
2022/04/21 06:58:50;;;;;;;13.68;6.70;;;;;;;18.45;42.29;100149.63;4936480;29;20035;-95
2022/04/21 07:01:16;;;;;;;15.52;6.82;;;;;;;20.36;39.04;100140.34;4936065;29;20027;-95
2022/04/21 07:03:41;;;;;;;14.50;6.65;;;;;;;21.85;36.08;100146.22;4936081;29;20034;-95
2022/04/21 07:06:06;;;;;;;14.43;6.70;;;;;;;23.50;33.78;100160.78;4935960;29;20470;-96
2022/04/21 07:08:32;;;;;;;15.68;6.53;;;;;;;24.15;32.08;100143.50;4935865;29;20032;-95
2022/04/21 07:10:58;;;;;;;11.48;5.85;;;;;;;26.39;29.78;100153.88;4935965;29;20032;-95
2022/04/21 07:13:23;;;;;;;17.75;6.53;;;;;;;26.75;28.32;100136.31;4936382;29;20024;-96
2022/04/21 07:15:49;;;;;;;8.43;6.10;;;;;;;27.08;28.00;100128.81;4940151;29;20028;-96
2022/04/21 07:18:14;;;;;;;10.57;6.18;;;;;;;27.57;27.65;100137.13;4935636;29;20023;-94
2022/04/21 07:20:40;;;;;;;14.95;7.03;;;;;;;26.82;28.49;100146.00;4935926;29;20073;-94
2022/04/21 07:23:06;;;;;;;9.70;6.60;;;;;;;25.04;30.79;100167.69;4936207;29;20032;-95
2022/04/21 07:25:32;;;;;;;12.88;7.03;;;;;;;24.96;31.49;100170.59;4935856;29;20055;-95
2022/04/21 07:27:57;;;;;;;10.13;6.07;;;;;;;23.66;33.46;100159.69;4936761;29;20100;-96
2022/04/21 07:30:22;;;;;;;16.55;7.45;;;;;;;22.87;34.24;100155.28;4936230;29;20040;-94
2022/04/21 07:32:48;;;;;;;15.18;6.97;;;;;;;22.14;36.32;100168.63;4936508;29;20474;-95
2022/04/21 07:35:14;;;;;;;14.95;6.82;;;;;;;24.64;32.51;100156.88;4936751;29;20414;-95
2022/04/21 07:37:40;;;;;;;19.60;6.88;;;;;;;24.18;32.46;100179.00;4936837;29;20118;-96
2022/04/21 07:40:06;;;;;;;12.65;7.00;;;;;;;22.60;34.59;100165.69;4936572;29;20074;-96
2022/04/21 07:42:32;;;;;;;18.00;7.80;;;;;;;21.21;37.33;100165.34;4936327;29;20020;-95
2022/04/21 07:45:01;;;;;;;15.70;8.23;;;;;;;20.59;38.12;100180.41;4936028;29;20067;-95
2022/04/21 07:47:27;;;;;;;11.80;6.53;;;;;;;20.69;38.11;100168.69;4935676;29;20024;-95
2022/04/21 07:49:52;;;;;;;14.05;7.28;;;;;;;21.14;38.03;100191.09;4935184;29;20043;-94
2022/04/21 07:55:14;;;;;;;10.50;6.53;;;;;;;26.24;30.09;100179.19;4936522;29;20035;-95
2022/04/21 07:57:44;;;;;;;15.35;6.93;;;;;;;30.17;24.83;100178.47;4935513;29;20035;-96
2022/04/21 08:00:11;;;;;;;11.65;7.15;;;;;;;31.57;23.77;100178.84;4934969;29;20042;-96
2022/04/21 08:02:41;;;;;;;11.45;7.28;;;;;;;33.13;21.93;100175.81;4937021;29;20027;-95
2022/04/21 08:05:08;;;;;;;15.45;6.65;;;;;;;33.94;21.36;100191.06;4939008;29;20340;-95
2022/04/21 08:07:34;;;;;;;10.07;6.68;;;;;;;34.02;20.70;100169.88;4938990;29;20319;-96
2022/04/21 08:10:04;;;;;;;12.45;6.10;;;;;;;36.02;18.91;100178.19;4939336;29;20055;-95
2022/04/21 08:12:42;;;;;;;14.88;6.68;;;;;;;36.53;18.77;100167.03;4939038;29;20039;-96
2022/04/21 08:15:09;;;;;;;15.32;6.45;;;;;;;36.77;18.81;100166.34;4939142;29;20022;-96
2022/04/21 08:17:36;;;;;;;15.40;6.80;;;;;;;38.23;17.64;100166.28;4938886;29;20118;-95
2022/04/21 08:20:08;;;;;;;15.65;7.03;;;;;;;38.01;16.76;100169.56;4939031;29;20031;-96
2022/04/21 08:22:34;;;;;;;11.18;6.90;;;;;;;37.48;18.09;100164.91;4937856;29;20104;-96
2022/04/21 08:33:11;;;;;;;12.65;6.22;;;;;;;40.69;16.02;100158.22;4940455;29;20403;-96
2022/04/21 08:35:36;;;;;;;14.23;7.15;;;;;;;40.90;15.46;100167.66;4938722;29;20019;-95
2022/04/21 08:38:04;;;;;;;11.35;6.40;;;;;;;40.41;15.73;100163.84;4938465;29;20031;-96
2022/04/21 08:40:31;;;;;;;11.23;7.05;;;;;;;39.98;15.69;100161.44;4939138;29;20451;-96
2022/04/21 08:42:59;;;;;;;13.48;6.78;;;;;;;40.28;15.68;100162.69;4940260;29;20102;-96
2022/04/21 08:45:25;;;;;;;10.63;7.18;;;;;;;39.63;15.84;100181.06;4954955;29;20031;-95
2022/04/21 08:47:57;;;;;;;17.23;7.95;;;;;;;37.64;16.96;100180.13;4955714;29;20032;-96
2022/04/21 08:50:25;;;;;;;11.27;6.85;;;;;;;37.78;16.98;100163.81;4947813;29;20034;-96
2022/04/21 08:52:52;;;;;;;13.55;6.70;;;;;;;38.01;16.93;100170.34;4943548;29;20054;-96
2022/04/21 08:55:18;;;;;;;14.27;6.45;;;;;;;37.75;17.63;100169.84;4941088;29;20035;-96
2022/04/21 08:57:43;;;;;;;16.73;7.78;;;;;;;35.96;18.97;100157.47;4939359;29;20474;-96
2022/04/21 09:00:09;;;;;;;12.35;7.45;;;;;;;36.62;18.15;100162.59;4938499;29;20032;-96
2022/04/21 09:02:40;;;;;;;10.52;6.90;;;;;;;37.93;17.19;100159.25;4938467;29;20043;-96
2022/04/21 09:05:07;;;;;;;10.23;7.45;;;;;;;36.72;18.48;100162.53;4938539;29;20283;-96
2022/04/21 09:07:32;;;;;;;13.05;7.13;;;;;;;37.93;17.39;100165.53;4938721;29;20021;-96
2022/04/21 09:10:04;;;;;;;14.02;8.18;;;;;;;38.46;16.89;100168.13;4938869;29;20031;-96
2022/04/21 09:12:33;;;;;;;11.75;7.32;;;;;;;37.59;17.53;100182.06;4939036;29;20070;-96
2022/04/21 09:15:06;;;;;;;15.02;7.72;;;;;;;37.91;17.49;100154.06;4947579;29;20028;-96
2022/04/21 09:17:38;;;;;;;18.55;7.40;;;;;;;38.49;17.31;100155.78;4944223;29;20026;-96
2022/04/21 09:20:05;;;;;;;16.65;8.68;;;;;;;35.57;18.97;100155.34;4945688;29;20028;-96
2022/04/21 09:22:35;;;;;;;11.88;7.90;;;;;;;36.23;18.99;100173.50;4942562;29;20035;-96
2022/04/21 09:25:01;;;;;;;11.48;7.45;;;;;;;39.46;16.76;100158.91;4942166;29;20051;-96
2022/04/21 09:27:48;;;;;;;13.27;8.50;;;;;;;40.97;15.91;100173.50;4946385;29;20028;-96
2022/04/21 09:30:21;;;;;;;11.75;8.25;;;;;;;40.78;15.21;100150.84;4945823;29;20047;-96
2022/04/21 09:33:00;;;;;;;10.77;7.18;;;;;;;41.20;15.24;100154.25;4949847;29;20028;-96
2022/04/21 09:35:33;;;;;;;17.58;8.00;;;;;;;42.10;15.09;100162.19;4945154;29;20027;-96
2022/04/21 09:38:04;;;;;;;10.13;7.07;;;;;;;41.86;15.35;100159.84;4947240;29;20458;-96
2022/04/21 09:40:30;;;;;;;14.02;7.15;;;;;;;39.49;16.29;100162.94;4943732;29;20047;-96
2022/04/21 09:43:03;;;;;;;13.18;7.53;;;;;;;40.96;15.64;100155.38;4947134;29;20031;-96
2022/04/21 09:48:22;;;;;;;13.93;8.07;;;;;;;42.05;15.12;100150.53;4949003;29;20182;-96
2022/04/21 09:50:56;;;;;;;10.88;7.30;;;;;;;41.00;15.73;100159.13;4942453;29;20036;-96
2022/04/21 09:53:25;;;;;;;15.38;6.93;;;;;;;40.73;16.06;100145.47;4942516;29;20063;-96
2022/04/21 09:55:54;;;;;;;14.20;7.95;;;;;;;40.34;15.70;100163.44;4941949;29;20054;-96
2022/04/21 09:58:20;;;;;;;13.10;8.02;;;;;;;36.35;18.49;100164.97;4942951;29;20028;-96
2022/04/21 10:00:46;;;;;;;13.07;7.30;;;;;;;37.33;18.92;100156.88;4937091;29;20024;-96
2022/04/21 10:03:12;;;;;;;11.73;6.43;;;;;;;42.91;14.73;100163.53;4937047;29;20394;-96
2022/04/21 10:05:41;;;;;;;12.88;7.90;;;;;;;40.27;15.73;100155.59;4937181;29;20034;-96
2022/04/21 10:08:08;;;;;;;13.15;8.38;;;;;;;40.90;15.25;100164.06;4952922;29;20032;-96
2022/04/21 10:10:35;;;;;;;13.27;7.30;;;;;;;41.46;14.32;100151.59;4936861;29;20028;-95
2022/04/21 10:13:02;;;;;;;11.15;7.55;;;;;;;39.97;16.12;100143.31;4936778;29;20031;-96
2022/04/21 10:15:29;;;;;;;12.43;8.18;;;;;;;36.05;18.71;100139.38;4937287;29;20376;-95
2022/04/21 10:17:55;;;;;;;14.55;9.68;;;;;;;36.34;19.10;100139.53;4937700;29;20024;-95
2022/04/21 10:20:23;;;;;;;15.13;7.95;;;;;;;38.12;17.70;100151.91;4939278;29;20035;-96
2022/04/21 10:22:50;;;;;;;12.15;9.18;;;;;;;37.45;17.46;100133.47;4942581;29;20082;-95
2022/04/21 10:25:16;;;;;;;14.10;8.55;;;;;;;37.10;18.37;100149.09;4953336;29;20091;-96
2022/04/21 10:27:45;;;;;;;10.68;8.07;;;;;;;38.60;17.32;100140.81;4952570;29;20542;-96
2022/04/21 10:30:22;;;;;;;13.50;8.55;;;;;;;37.75;17.73;100131.50;4943753;28;20036;-96
2022/04/21 10:33:01;;;;;;;16.95;8.55;;;;;;;33.48;21.46;100138.25;4939697;29;20039;-96
2022/04/21 10:35:34;;;;;;;14.32;8.57;;;;;;;33.17;21.82;100143.47;4938228;29;20031;-96
2022/04/21 10:38:18;;;;;;;16.95;9.18;;;;;;;34.92;20.42;100134.97;4935973;29;20126;-95
2022/04/21 10:41:10;;;;;;;11.27;8.82;;;;;;;35.69;19.29;100137.63;4936396;29;20569;-96
2022/04/21 10:43:48;;;;;;;13.68;8.13;;;;;;;38.54;16.69;100132.97;4936539;29;20118;-95
2022/04/21 10:46:29;;;;;;;13.85;8.68;;;;;;;39.56;16.42;100122.16;4936080;29;20106;-95
2022/04/21 10:48:55;;;;;;;15.27;8.15;;;;;;;41.14;14.86;100114.16;4952327;29;20038;-96
2022/04/21 10:57:31;;;;;;;13.60;9.27;;;;;;;38.50;16.75;100119.00;4922500;29;20035;-94
2022/04/21 11:00:03;;;;;;;12.95;9.07;;;;;;;38.77;16.68;100112.03;4936237;29;20040;-95
2022/04/21 11:02:38;;;;;;;12.35;8.50;;;;;;;39.92;16.21;100096.72;4936405;29;20434;-95
2022/04/21 11:05:22;;;;;;;15.93;8.07;;;;;;;40.97;15.73;100112.94;4935088;29;20023;-96
2022/04/21 11:07:56;;;;;;;11.02;9.10;;;;;;;37.02;17.89;100089.53;4935955;29;20083;-96
2022/04/21 11:10:41;;;;;;;14.48;8.15;;;;;;;40.90;15.73;100107.06;4936202;29;20486;-95
2022/04/21 11:13:12;;;;;;;9.73;8.73;;;;;;;38.71;16.71;100102.22;4935777;29;20032;-95
2022/04/21 11:15:58;;;;;;;11.60;9.38;;;;;;;36.28;17.87;100092.28;4935854;29;20051;-95
2022/04/21 11:18:31;;;;;;;12.90;9.20;;;;;;;32.14;21.72;100114.47;4935562;29;20032;-94
2022/04/21 11:21:31;;;;;;;12.07;9.85;;;;;;;31.63;23.63;100110.00;4935200;29;20027;-95
2022/04/21 11:23:56;;;;;;;12.18;9.05;;;;;;;34.99;20.25;100106.59;4935135;29;20036;-95
2022/04/21 11:26:26;;;;;;;10.77;8.38;;;;;;;34.61;19.91;100089.66;4936673;29;20500;-96
2022/04/21 11:28:52;;;;;;;16.58;9.77;;;;;;;32.01;22.67;100086.63;4935861;29;20050;-96
2022/04/21 11:31:21;;;;;;;16.65;10.88;;;;;;;28.88;25.77;100096.25;4935905;29;20019;-96
2022/04/21 11:33:47;;;;;;;13.70;9.60;;;;;;;27.77;28.00;100088.38;4935667;28;20123;-95
2022/04/21 11:36:14;;;;;;;16.58;9.80;;;;;;;27.34;28.11;100094.63;4935724;29;20126;-95
2022/04/21 11:38:41;;;;;;;14.27;11.38;;;;;;;25.87;30.45;100100.03;4938991;29;20050;-95
2022/04/21 11:41:08;;;;;;;20.55;10.98;;;;;;;26.35;30.30;100088.88;4940210;29;20032;-95
2022/04/21 11:43:35;;;;;;;12.95;10.00;;;;;;;25.97;30.89;100094.22;4939308;28;20039;-95
2022/04/21 11:46:02;;;;;;;16.70;10.10;;;;;;;27.30;29.52;100091.53;4939340;28;20414;-94
2022/04/21 11:48:33;;;;;;;12.63;9.77;;;;;;;28.56;27.83;100090.31;4939154;29;20023;-95
2022/04/21 11:50:59;;;;;;;18.73;9.02;;;;;;;29.75;26.29;100098.28;4938610;29;20036;-95
2022/04/21 11:53:28;;;;;;;13.30;9.13;;;;;;;30.00;26.10;100087.16;4938988;29;20118;-95
2022/04/21 11:55:53;;;;;;;11.88;8.57;;;;;;;31.45;24.08;100085.88;4939070;29;20122;-96
2022/04/21 11:58:34;;;;;;;14.50;8.90;;;;;;;29.19;26.37;100092.44;4938683;28;20122;-96
2022/04/21 12:06:44;;;;;;;13.00;8.68;;;;;;;28.00;28.62;100087.72;4940762;29;20094;-95
2022/04/21 12:09:34;;;;;;;17.20;8.70;;;;;;;29.92;26.91;100065.06;4938715;29;20123;-95
2022/04/21 12:12:01;;;;;;;13.25;8.18;;;;;;;30.00;26.09;100076.34;4938365;29;20031;-95
2022/04/21 12:14:27;;;;;;;13.13;8.05;;;;;;;29.41;25.51;100078.31;4938159;29;20019;-95
2022/04/21 12:16:54;;;;;;;9.93;8.25;;;;;;;28.96;26.80;100076.97;4938245;28;20533;-96
2022/04/21 12:19:34;;;;;;;11.40;8.82;;;;;;;26.32;29.12;100073.16;4938318;29;20035;-95